sensor_id;sensor_type;location;lat;lon;timestamp;pressure;altitude;pressure_sealevel;temperature
67822;BMP180;54434;50.096;20.082;2023-11-19T00:00:00;99378.40;;;1.90
67822;BMP180;54434;50.096;20.082;2023-11-19T00:02:39;99375.00;;;1.90
67822;BMP180;54434;50.096;20.082;2023-11-19T00:05:12;99376.00;;;1.90
67822;BMP180;54434;50.096;20.082;2023-11-19T00:07:44;99366.00;;;1.90
67822;BMP180;54434;50.096;20.082;2023-11-19T00:10:17;99362.60;;;1.90
67822;BMP180;54434;50.096;20.082;2023-11-19T00:12:51;99361.20;;;1.90
67822;BMP180;54434;50.096;20.082;2023-11-19T00:15:23;99362.80;;;1.90
67822;BMP180;54434;50.096;20.082;2023-11-19T00:17:55;99363.80;;;1.90
67822;BMP180;54434;50.096;20.082;2023-11-19T00:20:32;99365.20;;;1.90
67822;BMP180;54434;50.096;20.082;2023-11-19T00:23:04;99367.00;;;1.90
67822;BMP180;54434;50.096;20.082;2023-11-19T00:25:35;99362.60;;;1.80
67822;BMP180;54434;50.096;20.082;2023-11-19T00:28:09;99359.40;;;1.80
67822;BMP180;54434;50.096;20.082;2023-11-19T00:30:40;99359.60;;;1.80
67822;BMP180;54434;50.096;20.082;2023-11-19T00:33:12;99361.80;;;1.80
67822;BMP180;54434;50.096;20.082;2023-11-19T00:35:44;99359.60;;;1.80
67822;BMP180;54434;50.096;20.082;2023-11-19T00:38:15;99349.20;;;1.82
67822;BMP180;54434;50.096;20.082;2023-11-19T00:40:46;99341.40;;;1.80
67822;BMP180;54434;50.096;20.082;2023-11-19T00:43:17;99341.20;;;1.80
67822;BMP180;54434;50.096;20.082;2023-11-19T00:45:49;99331.60;;;1.80
67822;BMP180;54434;50.096;20.082;2023-11-19T00:48:21;99321.40;;;1.80
67822;BMP180;54434;50.096;20.082;2023-11-19T00:50:52;99317.20;;;1.80
67822;BMP180;54434;50.096;20.082;2023-11-19T00:53:24;99314.20;;;1.80
67822;BMP180;54434;50.096;20.082;2023-11-19T00:55:55;99310.60;;;1.80
67822;BMP180;54434;50.096;20.082;2023-11-19T00:58:28;99312.80;;;1.82
67822;BMP180;54434;50.096;20.082;2023-11-19T01:01:00;99308.20;;;1.88
67822;BMP180;54434;50.096;20.082;2023-11-19T01:03:31;99312.00;;;1.90
67822;BMP180;54434;50.096;20.082;2023-11-19T01:06:06;99303.20;;;1.90
67822;BMP180;54434;50.096;20.082;2023-11-19T01:08:39;99297.00;;;1.90
67822;BMP180;54434;50.096;20.082;2023-11-19T01:11:20;99297.40;;;1.90
67822;BMP180;54434;50.096;20.082;2023-11-19T01:13:53;99296.40;;;1.90
67822;BMP180;54434;50.096;20.082;2023-11-19T01:16:25;99292.40;;;1.90
67822;BMP180;54434;50.096;20.082;2023-11-19T01:18:57;99285.40;;;1.90
67822;BMP180;54434;50.096;20.082;2023-11-19T01:21:47;99289.40;;;1.90
67822;BMP180;54434;50.096;20.082;2023-11-19T01:24:19;99294.60;;;1.90
67822;BMP180;54434;50.096;20.082;2023-11-19T01:26:51;99291.40;;;1.90
67822;BMP180;54434;50.096;20.082;2023-11-19T01:29:24;99283.80;;;1.90
67822;BMP180;54434;50.096;20.082;2023-11-19T01:31:55;99284.40;;;1.82
67822;BMP180;54434;50.096;20.082;2023-11-19T01:34:26;99285.20;;;1.86
67822;BMP180;54434;50.096;20.082;2023-11-19T01:36:57;99296.20;;;1.80
67822;BMP180;54434;50.096;20.082;2023-11-19T01:39:29;99291.00;;;1.80
67822;BMP180;54434;50.096;20.082;2023-11-19T01:41:59;99281.80;;;1.80
67822;BMP180;54434;50.096;20.082;2023-11-19T01:44:31;99282.80;;;1.80
67822;BMP180;54434;50.096;20.082;2023-11-19T01:47:06;99283.00;;;1.80
67822;BMP180;54434;50.096;20.082;2023-11-19T01:49:39;99281.80;;;1.80
67822;BMP180;54434;50.096;20.082;2023-11-19T01:52:09;99278.20;;;1.78
67822;BMP180;54434;50.096;20.082;2023-11-19T01:54:41;99276.00;;;1.70
67822;BMP180;54434;50.096;20.082;2023-11-19T01:57:14;99271.40;;;1.70
67822;BMP180;54434;50.096;20.082;2023-11-19T01:59:46;99270.80;;;1.74
67822;BMP180;54434;50.096;20.082;2023-11-19T02:02:19;99264.60;;;1.70
67822;BMP180;54434;50.096;20.082;2023-11-19T02:04:53;99261.80;;;1.70
67822;BMP180;54434;50.096;20.082;2023-11-19T02:07:26;99252.80;;;1.70
67822;BMP180;54434;50.096;20.082;2023-11-19T02:09:59;99250.40;;;1.68
67822;BMP180;54434;50.096;20.082;2023-11-19T02:12:33;99243.60;;;1.66
67822;BMP180;54434;50.096;20.082;2023-11-19T02:15:07;99240.20;;;1.70
67822;BMP180;54434;50.096;20.082;2023-11-19T02:17:39;99239.00;;;1.70
67822;BMP180;54434;50.096;20.082;2023-11-19T02:20:12;99236.20;;;1.70
67822;BMP180;54434;50.096;20.082;2023-11-19T02:22:46;99239.80;;;1.70
67822;BMP180;54434;50.096;20.082;2023-11-19T02:25:28;99238.20;;;1.70
67822;BMP180;54434;50.096;20.082;2023-11-19T02:28:04;99229.80;;;1.70
67822;BMP180;54434;50.096;20.082;2023-11-19T02:30:36;99215.00;;;1.70
67822;BMP180;54434;50.096;20.082;2023-11-19T02:33:08;99201.40;;;1.70
67822;BMP180;54434;50.096;20.082;2023-11-19T02:35:40;99194.80;;;1.70
67822;BMP180;54434;50.096;20.082;2023-11-19T02:38:12;99185.20;;;1.66
67822;BMP180;54434;50.096;20.082;2023-11-19T02:40:45;99177.20;;;1.70
67822;BMP180;54434;50.096;20.082;2023-11-19T02:43:16;99166.80;;;1.70
67822;BMP180;54434;50.096;20.082;2023-11-19T02:45:49;99166.80;;;1.70
67822;BMP180;54434;50.096;20.082;2023-11-19T02:48:22;99159.60;;;1.70
67822;BMP180;54434;50.096;20.082;2023-11-19T02:50:53;99153.40;;;1.70
67822;BMP180;54434;50.096;20.082;2023-11-19T02:53:25;99153.20;;;1.70
67822;BMP180;54434;50.096;20.082;2023-11-19T02:56:00;99154.80;;;1.70
67822;BMP180;54434;50.096;20.082;2023-11-19T02:58:38;99161.40;;;1.64
67822;BMP180;54434;50.096;20.082;2023-11-19T03:01:10;99150.20;;;1.64
67822;BMP180;54434;50.096;20.082;2023-11-19T03:03:50;99143.00;;;1.60
67822;BMP180;54434;50.096;20.082;2023-11-19T03:06:25;99138.60;;;1.60
67822;BMP180;54434;50.096;20.082;2023-11-19T03:08:58;99132.40;;;1.60
67822;BMP180;54434;50.096;20.082;2023-11-19T03:11:28;99125.40;;;1.60
67822;BMP180;54434;50.096;20.082;2023-11-19T03:14:00;99114.20;;;1.60
67822;BMP180;54434;50.096;20.082;2023-11-19T03:16:34;99108.00;;;1.60
67822;BMP180;54434;50.096;20.082;2023-11-19T03:19:06;99101.40;;;1.60
67822;BMP180;54434;50.096;20.082;2023-11-19T03:21:38;99104.40;;;1.56
67822;BMP180;54434;50.096;20.082;2023-11-19T03:24:09;99095.60;;;1.50
67822;BMP180;54434;50.096;20.082;2023-11-19T03:26:41;99091.20;;;1.50
67822;BMP180;54434;50.096;20.082;2023-11-19T03:29:13;99086.40;;;1.50
67822;BMP180;54434;50.096;20.082;2023-11-19T03:31:45;99084.60;;;1.48
67822;BMP180;54434;50.096;20.082;2023-11-19T03:34:17;99087.00;;;1.40
67822;BMP180;54434;50.096;20.082;2023-11-19T03:36:49;99078.20;;;1.40
67822;BMP180;54434;50.096;20.082;2023-11-19T03:39:22;99074.40;;;1.40
67822;BMP180;54434;50.096;20.082;2023-11-19T03:41:56;99071.00;;;1.40
67822;BMP180;54434;50.096;20.082;2023-11-19T03:44:29;99074.00;;;1.30
67822;BMP180;54434;50.096;20.082;2023-11-19T03:47:01;99073.80;;;1.30
67822;BMP180;54434;50.096;20.082;2023-11-19T03:49:32;99072.20;;;1.30
67822;BMP180;54434;50.096;20.082;2023-11-19T03:52:05;99072.80;;;1.30
67822;BMP180;54434;50.096;20.082;2023-11-19T03:54:37;99061.00;;;1.30
67822;BMP180;54434;50.096;20.082;2023-11-19T03:57:08;99053.80;;;1.30
67822;BMP180;54434;50.096;20.082;2023-11-19T03:59:41;99051.20;;;1.30
67822;BMP180;54434;50.096;20.082;2023-11-19T04:02:13;99045.00;;;1.30
67822;BMP180;54434;50.096;20.082;2023-11-19T04:04:45;99038.40;;;1.30
67822;BMP180;54434;50.096;20.082;2023-11-19T04:07:17;99030.40;;;1.28
67822;BMP180;54434;50.096;20.082;2023-11-19T04:09:48;99025.00;;;1.22
67822;BMP180;54434;50.096;20.082;2023-11-19T04:12:20;99012.80;;;1.20
67822;BMP180;54434;50.096;20.082;2023-11-19T04:14:52;99008.20;;;1.20
67822;BMP180;54434;50.096;20.082;2023-11-19T04:17:27;99011.20;;;1.20
67822;BMP180;54434;50.096;20.082;2023-11-19T04:19:59;99012.80;;;1.20
67822;BMP180;54434;50.096;20.082;2023-11-19T04:22:31;99009.60;;;1.16
67822;BMP180;54434;50.096;20.082;2023-11-19T04:25:05;99001.60;;;1.12
67822;BMP180;54434;50.096;20.082;2023-11-19T04:27:37;99000.20;;;1.10
67822;BMP180;54434;50.096;20.082;2023-11-19T04:30:10;98993.40;;;1.10
67822;BMP180;54434;50.096;20.082;2023-11-19T04:32:41;98982.80;;;1.10
67822;BMP180;54434;50.096;20.082;2023-11-19T04:35:14;98989.60;;;1.10
67822;BMP180;54434;50.096;20.082;2023-11-19T04:37:45;98983.80;;;1.10
67822;BMP180;54434;50.096;20.082;2023-11-19T04:40:19;98977.20;;;1.10
67822;BMP180;54434;50.096;20.082;2023-11-19T04:42:53;98983.00;;;1.10
67822;BMP180;54434;50.096;20.082;2023-11-19T04:45:25;98981.00;;;1.10
67822;BMP180;54434;50.096;20.082;2023-11-19T04:47:57;98975.20;;;1.10
67822;BMP180;54434;50.096;20.082;2023-11-19T04:50:30;98962.40;;;1.10
67822;BMP180;54434;50.096;20.082;2023-11-19T04:53:00;98951.80;;;1.10
67822;BMP180;54434;50.096;20.082;2023-11-19T04:55:34;98951.40;;;1.10
67822;BMP180;54434;50.096;20.082;2023-11-19T04:58:04;98960.00;;;1.10
67822;BMP180;54434;50.096;20.082;2023-11-19T05:00:36;98949.60;;;1.10
67822;BMP180;54434;50.096;20.082;2023-11-19T05:03:07;98937.40;;;1.10
67822;BMP180;54434;50.096;20.082;2023-11-19T05:05:40;98932.60;;;1.10
67822;BMP180;54434;50.096;20.082;2023-11-19T05:08:10;98936.40;;;1.10
67822;BMP180;54434;50.096;20.082;2023-11-19T05:10:42;98948.80;;;1.10
67822;BMP180;54434;50.096;20.082;2023-11-19T05:13:14;98950.60;;;1.10
67822;BMP180;54434;50.096;20.082;2023-11-19T05:15:46;98945.40;;;1.10
67822;BMP180;54434;50.096;20.082;2023-11-19T05:18:18;98938.60;;;1.10
67822;BMP180;54434;50.096;20.082;2023-11-19T05:20:50;98945.00;;;1.10
67822;BMP180;54434;50.096;20.082;2023-11-19T05:23:22;98939.60;;;1.10
67822;BMP180;54434;50.096;20.082;2023-11-19T05:25:52;98938.80;;;1.10
67822;BMP180;54434;50.096;20.082;2023-11-19T05:28:24;98939.40;;;1.10
67822;BMP180;54434;50.096;20.082;2023-11-19T05:30:57;98937.80;;;1.12
67822;BMP180;54434;50.096;20.082;2023-11-19T05:33:29;98944.80;;;1.14
67822;BMP180;54434;50.096;20.082;2023-11-19T05:36:01;98946.00;;;1.14
67822;BMP180;54434;50.096;20.082;2023-11-19T05:38:34;98943.40;;;1.20
67822;BMP180;54434;50.096;20.082;2023-11-19T05:41:07;98947.20;;;1.20
67822;BMP180;54434;50.096;20.082;2023-11-19T05:43:39;98943.20;;;1.20
67822;BMP180;54434;50.096;20.082;2023-11-19T05:46:11;98939.20;;;1.22
67822;BMP180;54434;50.096;20.082;2023-11-19T05:48:47;98938.20;;;1.20
67822;BMP180;54434;50.096;20.082;2023-11-19T05:51:19;98942.60;;;1.24
67822;BMP180;54434;50.096;20.082;2023-11-19T05:53:52;98937.60;;;1.28
67822;BMP180;54434;50.096;20.082;2023-11-19T05:56:27;98928.60;;;1.30
67822;BMP180;54434;50.096;20.082;2023-11-19T05:59:04;98914.20;;;1.30
67822;BMP180;54434;50.096;20.082;2023-11-19T06:01:38;98902.80;;;1.30
67822;BMP180;54434;50.096;20.082;2023-11-19T06:04:13;98900.80;;;1.30
67822;BMP180;54434;50.096;20.082;2023-11-19T06:06:45;98899.60;;;1.30
67822;BMP180;54434;50.096;20.082;2023-11-19T06:09:19;98902.60;;;1.30
67822;BMP180;54434;50.096;20.082;2023-11-19T06:11:52;98896.60;;;1.28
67822;BMP180;54434;50.096;20.082;2023-11-19T06:14:24;98892.00;;;1.28
67822;BMP180;54434;50.096;20.082;2023-11-19T06:16:56;98888.20;;;1.24
67822;BMP180;54434;50.096;20.082;2023-11-19T06:19:29;98897.80;;;1.26
67822;BMP180;54434;50.096;20.082;2023-11-19T06:22:01;98899.00;;;1.20
67822;BMP180;54434;50.096;20.082;2023-11-19T06:24:33;98899.00;;;1.24
67822;BMP180;54434;50.096;20.082;2023-11-19T06:27:04;98898.20;;;1.28
67822;BMP180;54434;50.096;20.082;2023-11-19T06:29:36;98892.60;;;1.24
67822;BMP180;54434;50.096;20.082;2023-11-19T06:32:08;98885.80;;;1.30
67822;BMP180;54434;50.096;20.082;2023-11-19T06:34:43;98881.80;;;1.30
67822;BMP180;54434;50.096;20.082;2023-11-19T06:37:16;98880.40;;;1.30
67822;BMP180;54434;50.096;20.082;2023-11-19T06:39:48;98884.20;;;1.30
67822;BMP180;54434;50.096;20.082;2023-11-19T06:42:18;98891.00;;;1.34
67822;BMP180;54434;50.096;20.082;2023-11-19T06:44:50;98892.60;;;1.40
67822;BMP180;54434;50.096;20.082;2023-11-19T06:47:22;98894.60;;;1.40
67822;BMP180;54434;50.096;20.082;2023-11-19T06:49:56;98889.60;;;1.44
67822;BMP180;54434;50.096;20.082;2023-11-19T06:52:28;98892.60;;;1.50
67822;BMP180;54434;50.096;20.082;2023-11-19T06:55:02;98888.80;;;1.50
67822;BMP180;54434;50.096;20.082;2023-11-19T06:57:37;98884.20;;;1.50
67822;BMP180;54434;50.096;20.082;2023-11-19T07:00:12;98881.20;;;1.50
67822;BMP180;54434;50.096;20.082;2023-11-19T07:02:44;98866.00;;;1.50
67822;BMP180;54434;50.096;20.082;2023-11-19T07:05:17;98866.60;;;1.50
67822;BMP180;54434;50.096;20.082;2023-11-19T07:07:52;98860.00;;;1.60
67822;BMP180;54434;50.096;20.082;2023-11-19T07:10:28;98854.00;;;1.60
67822;BMP180;54434;50.096;20.082;2023-11-19T07:13:02;98858.20;;;1.60
67822;BMP180;54434;50.096;20.082;2023-11-19T07:15:35;98854.20;;;1.62
67822;BMP180;54434;50.096;20.082;2023-11-19T07:18:07;98852.40;;;1.66
67822;BMP180;54434;50.096;20.082;2023-11-19T07:20:39;98840.60;;;1.70
67822;BMP180;54434;50.096;20.082;2023-11-19T07:23:10;98832.80;;;1.72
67822;BMP180;54434;50.096;20.082;2023-11-19T07:25:43;98824.40;;;1.80
67822;BMP180;54434;50.096;20.082;2023-11-19T07:28:17;98817.80;;;1.80
67822;BMP180;54434;50.096;20.082;2023-11-19T07:30:48;98811.40;;;1.80
67822;BMP180;54434;50.096;20.082;2023-11-19T07:33:20;98809.20;;;1.90
67822;BMP180;54434;50.096;20.082;2023-11-19T07:35:51;98809.20;;;1.90
67822;BMP180;54434;50.096;20.082;2023-11-19T07:38:23;98807.60;;;1.90
67822;BMP180;54434;50.096;20.082;2023-11-19T07:40:55;98806.60;;;2.00
67822;BMP180;54434;50.096;20.082;2023-11-19T07:43:28;98813.80;;;2.08
67822;BMP180;54434;50.096;20.082;2023-11-19T07:45:59;98817.80;;;2.10
67822;BMP180;54434;50.096;20.082;2023-11-19T07:48:31;98814.20;;;2.20
67822;BMP180;54434;50.096;20.082;2023-11-19T07:51:03;98820.60;;;2.30
67822;BMP180;54434;50.096;20.082;2023-11-19T07:53:35;98814.40;;;2.40
67822;BMP180;54434;50.096;20.082;2023-11-19T07:56:11;98814.60;;;2.50
67822;BMP180;54434;50.096;20.082;2023-11-19T07:58:42;98809.20;;;2.50
67822;BMP180;54434;50.096;20.082;2023-11-19T08:01:15;98803.40;;;2.60
67822;BMP180;54434;50.096;20.082;2023-11-19T08:03:47;98797.00;;;2.70
67822;BMP180;54434;50.096;20.082;2023-11-19T08:06:22;98788.20;;;2.80
67822;BMP180;54434;50.096;20.082;2023-11-19T08:08:54;98791.40;;;2.90
67822;BMP180;54434;50.096;20.082;2023-11-19T08:11:26;98789.40;;;3.00
67822;BMP180;54434;50.096;20.082;2023-11-19T08:13:59;98773.60;;;3.10
67822;BMP180;54434;50.096;20.082;2023-11-19T08:16:31;98768.00;;;3.20
67822;BMP180;54434;50.096;20.082;2023-11-19T08:19:03;98772.00;;;3.26
67822;BMP180;54434;50.096;20.082;2023-11-19T08:21:35;98770.80;;;3.30
67822;BMP180;54434;50.096;20.082;2023-11-19T08:24:09;98762.80;;;3.38
67822;BMP180;54434;50.096;20.082;2023-11-19T08:26:40;98762.20;;;3.40
67822;BMP180;54434;50.096;20.082;2023-11-19T08:29:12;98761.20;;;3.40
67822;BMP180;54434;50.096;20.082;2023-11-19T08:31:45;98752.00;;;3.48
67822;BMP180;54434;50.096;20.082;2023-11-19T08:34:16;98748.60;;;3.50
67822;BMP180;54434;50.096;20.082;2023-11-19T08:36:50;98740.20;;;3.50
67822;BMP180;54434;50.096;20.082;2023-11-19T08:39:26;98735.40;;;3.60
67822;BMP180;54434;50.096;20.082;2023-11-19T08:41:58;98738.00;;;3.60
67822;BMP180;54434;50.096;20.082;2023-11-19T08:44:30;98747.20;;;3.70
67822;BMP180;54434;50.096;20.082;2023-11-19T08:47:00;98748.60;;;3.70
67822;BMP180;54434;50.096;20.082;2023-11-19T08:49:32;98733.00;;;3.76
67822;BMP180;54434;50.096;20.082;2023-11-19T08:52:03;98733.80;;;3.80
67822;BMP180;54434;50.096;20.082;2023-11-19T08:54:35;98746.20;;;3.80
67822;BMP180;54434;50.096;20.082;2023-11-19T08:57:07;98748.80;;;3.84
67822;BMP180;54434;50.096;20.082;2023-11-19T08:59:40;98734.80;;;3.88
67822;BMP180;54434;50.096;20.082;2023-11-19T09:02:14;98733.80;;;3.90
67822;BMP180;54434;50.096;20.082;2023-11-19T09:04:47;98732.60;;;3.90
67822;BMP180;54434;50.096;20.082;2023-11-19T09:07:22;98730.60;;;3.86
67822;BMP180;54434;50.096;20.082;2023-11-19T09:09:54;98725.40;;;3.80
67822;BMP180;54434;50.096;20.082;2023-11-19T09:12:26;98725.20;;;3.84
67822;BMP180;54434;50.096;20.082;2023-11-19T09:14:58;98717.20;;;3.90
67822;BMP180;54434;50.096;20.082;2023-11-19T09:17:30;98720.80;;;3.90
67822;BMP180;54434;50.096;20.082;2023-11-19T09:20:00;98717.00;;;3.90
67822;BMP180;54434;50.096;20.082;2023-11-19T09:22:32;98719.80;;;3.90
67822;BMP180;54434;50.096;20.082;2023-11-19T09:25:06;98709.20;;;3.90
67822;BMP180;54434;50.096;20.082;2023-11-19T09:27:38;98704.60;;;3.84
67822;BMP180;54434;50.096;20.082;2023-11-19T09:30:13;98695.00;;;3.80
67822;BMP180;54434;50.096;20.082;2023-11-19T09:32:45;98690.20;;;3.80
67822;BMP180;54434;50.096;20.082;2023-11-19T09:35:17;98674.80;;;3.90
67822;BMP180;54434;50.096;20.082;2023-11-19T09:37:49;98669.20;;;3.90
67822;BMP180;54434;50.096;20.082;2023-11-19T09:40:20;98660.20;;;3.90
67822;BMP180;54434;50.096;20.082;2023-11-19T09:42:52;98652.40;;;3.90
67822;BMP180;54434;50.096;20.082;2023-11-19T09:45:28;98648.80;;;3.90
67822;BMP180;54434;50.096;20.082;2023-11-19T09:48:03;98646.00;;;3.90
67822;BMP180;54434;50.096;20.082;2023-11-19T09:50:35;98649.60;;;3.84
67822;BMP180;54434;50.096;20.082;2023-11-19T09:53:07;98632.60;;;3.90
67822;BMP180;54434;50.096;20.082;2023-11-19T09:55:39;98632.20;;;3.80
67822;BMP180;54434;50.096;20.082;2023-11-19T09:58:12;98636.20;;;3.80
67822;BMP180;54434;50.096;20.082;2023-11-19T10:00:45;98635.40;;;3.80
67822;BMP180;54434;50.096;20.082;2023-11-19T10:03:37;98635.80;;;3.80
67822;BMP180;54434;50.096;20.082;2023-11-19T10:06:11;98634.20;;;3.88
67822;BMP180;54434;50.096;20.082;2023-11-19T10:08:44;98634.00;;;3.90
67822;BMP180;54434;50.096;20.082;2023-11-19T10:11:17;98625.40;;;3.96
67822;BMP180;54434;50.096;20.082;2023-11-19T10:13:49;98622.00;;;4.04
67822;BMP180;54434;50.096;20.082;2023-11-19T10:16:29;98620.60;;;4.14
67822;BMP180;54434;50.096;20.082;2023-11-19T10:19:02;98606.40;;;4.20
67822;BMP180;54434;50.096;20.082;2023-11-19T10:21:36;98594.60;;;4.30
67822;BMP180;54434;50.096;20.082;2023-11-19T10:24:09;98591.60;;;4.40
67822;BMP180;54434;50.096;20.082;2023-11-19T10:26:42;98587.60;;;4.50
67822;BMP180;54434;50.096;20.082;2023-11-19T10:29:16;98576.80;;;4.58
67822;BMP180;54434;50.096;20.082;2023-11-19T10:31:58;98584.40;;;4.70
67822;BMP180;54434;50.096;20.082;2023-11-19T10:34:50;98589.00;;;4.86
67822;BMP180;54434;50.096;20.082;2023-11-19T10:37:31;98585.80;;;4.90
67822;BMP180;54434;50.096;20.082;2023-11-19T10:40:20;98580.00;;;4.92
67822;BMP180;54434;50.096;20.082;2023-11-19T10:43:05;98570.00;;;4.92
67822;BMP180;54434;50.096;20.082;2023-11-19T10:45:39;98556.60;;;4.98
67822;BMP180;54434;50.096;20.082;2023-11-19T10:48:11;98556.00;;;5.00
67822;BMP180;54434;50.096;20.082;2023-11-19T10:50:46;98553.20;;;4.96
67822;BMP180;54434;50.096;20.082;2023-11-19T10:53:23;98539.40;;;5.00
67822;BMP180;54434;50.096;20.082;2023-11-19T10:56:00;98529.20;;;5.00
67822;BMP180;54434;50.096;20.082;2023-11-19T10:58:36;98534.80;;;5.08
67822;BMP180;54434;50.096;20.082;2023-11-19T11:01:16;98514.20;;;5.10
67822;BMP180;54434;50.096;20.082;2023-11-19T11:03:51;98503.20;;;5.20
67822;BMP180;54434;50.096;20.082;2023-11-19T11:06:29;98496.80;;;5.20
67822;BMP180;54434;50.096;20.082;2023-11-19T11:09:02;98498.60;;;5.10
67822;BMP180;54434;50.096;20.082;2023-11-19T11:11:35;98506.20;;;5.10
67822;BMP180;54434;50.096;20.082;2023-11-19T11:14:10;98501.00;;;5.10
67822;BMP180;54434;50.096;20.082;2023-11-19T11:16:45;98482.40;;;5.00
67822;BMP180;54434;50.096;20.082;2023-11-19T11:19:18;98474.40;;;5.00
67822;BMP180;54434;50.096;20.082;2023-11-19T11:21:54;98469.00;;;5.00
67822;BMP180;54434;50.096;20.082;2023-11-19T11:25:08;98464.80;;;4.90
67822;BMP180;54434;50.096;20.082;2023-11-19T11:28:06;98454.20;;;5.00
67822;BMP180;54434;50.096;20.082;2023-11-19T11:31:00;98448.40;;;5.00
67822;BMP180;54434;50.096;20.082;2023-11-19T11:34:12;98450.20;;;5.00
67822;BMP180;54434;50.096;20.082;2023-11-19T11:37:02;98443.60;;;5.00
67822;BMP180;54434;50.096;20.082;2023-11-19T11:39:40;98442.00;;;5.00
67822;BMP180;54434;50.096;20.082;2023-11-19T11:42:36;98441.80;;;4.96
67822;BMP180;54434;50.096;20.082;2023-11-19T11:45:12;98434.20;;;4.90
67822;BMP180;54434;50.096;20.082;2023-11-19T11:48:20;98421.40;;;4.90
67822;BMP180;54434;50.096;20.082;2023-11-19T11:50:59;98415.60;;;4.90
67822;BMP180;54434;50.096;20.082;2023-11-19T11:53:35;98407.00;;;4.90
67822;BMP180;54434;50.096;20.082;2023-11-19T11:56:09;98416.00;;;4.80
67822;BMP180;54434;50.096;20.082;2023-11-19T11:58:42;98421.20;;;4.80
67822;BMP180;54434;50.096;20.082;2023-11-19T12:01:17;98416.60;;;4.80
67822;BMP180;54434;50.096;20.082;2023-11-19T12:03:55;98417.00;;;4.80
67822;BMP180;54434;50.096;20.082;2023-11-19T12:06:31;98412.60;;;4.72
67822;BMP180;54434;50.096;20.082;2023-11-19T12:09:04;98410.60;;;4.70
67822;BMP180;54434;50.096;20.082;2023-11-19T12:11:38;98404.80;;;4.72
67822;BMP180;54434;50.096;20.082;2023-11-19T12:14:08;98404.20;;;4.70
67822;BMP180;54434;50.096;20.082;2023-11-19T12:16:40;98400.60;;;4.70
67822;BMP180;54434;50.096;20.082;2023-11-19T12:19:14;98391.80;;;4.66
67822;BMP180;54434;50.096;20.082;2023-11-19T12:21:46;98384.40;;;4.60
67822;BMP180;54434;50.096;20.082;2023-11-19T12:24:20;98374.40;;;4.60
67822;BMP180;54434;50.096;20.082;2023-11-19T12:26:52;98364.40;;;4.50
67822;BMP180;54434;50.096;20.082;2023-11-19T12:29:25;98359.60;;;4.40
67822;BMP180;54434;50.096;20.082;2023-11-19T12:31:57;98357.00;;;4.40
67822;BMP180;54434;50.096;20.082;2023-11-19T12:34:39;98357.40;;;4.30
67822;BMP180;54434;50.096;20.082;2023-11-19T12:37:11;98352.20;;;4.20
67822;BMP180;54434;50.096;20.082;2023-11-19T12:39:43;98346.80;;;4.20
67822;BMP180;54434;50.096;20.082;2023-11-19T12:42:17;98343.20;;;4.10
67822;BMP180;54434;50.096;20.082;2023-11-19T12:44:57;98337.00;;;4.00
67822;BMP180;54434;50.096;20.082;2023-11-19T12:47:29;98335.20;;;3.90
67822;BMP180;54434;50.096;20.082;2023-11-19T12:50:00;98335.20;;;3.90
67822;BMP180;54434;50.096;20.082;2023-11-19T12:52:32;98336.60;;;3.80
67822;BMP180;54434;50.096;20.082;2023-11-19T12:55:05;98331.40;;;3.72
67822;BMP180;54434;50.096;20.082;2023-11-19T12:57:42;98328.40;;;3.62
67822;BMP180;54434;50.096;20.082;2023-11-19T13:00:23;98322.40;;;3.60
67822;BMP180;54434;50.096;20.082;2023-11-19T13:02:57;98317.40;;;3.50
67822;BMP180;54434;50.096;20.082;2023-11-19T13:05:31;98313.00;;;3.50
67822;BMP180;54434;50.096;20.082;2023-11-19T13:08:07;98304.20;;;3.50
67822;BMP180;54434;50.096;20.082;2023-11-19T13:10:54;98302.20;;;3.50
67822;BMP180;54434;50.096;20.082;2023-11-19T13:13:28;98299.60;;;3.50
67822;BMP180;54434;50.096;20.082;2023-11-19T13:16:07;98296.40;;;3.50
67822;BMP180;54434;50.096;20.082;2023-11-19T13:18:40;98293.00;;;3.50
67822;BMP180;54434;50.096;20.082;2023-11-19T13:21:15;98289.60;;;3.42
67822;BMP180;54434;50.096;20.082;2023-11-19T13:23:46;98286.00;;;3.40
67822;BMP180;54434;50.096;20.082;2023-11-19T13:26:18;98290.40;;;3.40
67822;BMP180;54434;50.096;20.082;2023-11-19T13:28:50;98287.80;;;3.40
67822;BMP180;54434;50.096;20.082;2023-11-19T13:31:22;98284.80;;;3.40
67822;BMP180;54434;50.096;20.082;2023-11-19T13:33:54;98275.00;;;3.40
67822;BMP180;54434;50.096;20.082;2023-11-19T13:36:28;98279.00;;;3.40
67822;BMP180;54434;50.096;20.082;2023-11-19T13:39:02;98272.60;;;3.40
67822;BMP180;54434;50.096;20.082;2023-11-19T13:41:34;98274.00;;;3.40
67822;BMP180;54434;50.096;20.082;2023-11-19T13:44:07;98277.80;;;3.40
67822;BMP180;54434;50.096;20.082;2023-11-19T13:46:39;98267.20;;;3.32
67822;BMP180;54434;50.096;20.082;2023-11-19T13:49:12;98262.60;;;3.30
67822;BMP180;54434;50.096;20.082;2023-11-19T13:51:44;98262.40;;;3.30
67822;BMP180;54434;50.096;20.082;2023-11-19T13:54:16;98264.00;;;3.30
67822;BMP180;54434;50.096;20.082;2023-11-19T13:56:50;98261.20;;;3.30
67822;BMP180;54434;50.096;20.082;2023-11-19T13:59:26;98263.20;;;3.30
67822;BMP180;54434;50.096;20.082;2023-11-19T14:01:57;98261.40;;;3.30
67822;BMP180;54434;50.096;20.082;2023-11-19T14:04:29;98263.40;;;3.26
67822;BMP180;54434;50.096;20.082;2023-11-19T14:07:01;98258.80;;;3.20
67822;BMP180;54434;50.096;20.082;2023-11-19T14:09:34;98255.40;;;3.20
67822;BMP180;54434;50.096;20.082;2023-11-19T14:12:08;98258.40;;;3.20
67822;BMP180;54434;50.096;20.082;2023-11-19T14:14:40;98256.60;;;3.20
67822;BMP180;54434;50.096;20.082;2023-11-19T14:17:13;98259.00;;;3.20
67822;BMP180;54434;50.096;20.082;2023-11-19T14:19:46;98257.80;;;3.20
67822;BMP180;54434;50.096;20.082;2023-11-19T14:22:17;98246.40;;;3.20
67822;BMP180;54434;50.096;20.082;2023-11-19T14:24:49;98247.40;;;3.20
67822;BMP180;54434;50.096;20.082;2023-11-19T14:27:21;98248.00;;;3.20
67822;BMP180;54434;50.096;20.082;2023-11-19T14:29:53;98244.00;;;3.20
67822;BMP180;54434;50.096;20.082;2023-11-19T14:32:25;98237.60;;;3.20
67822;BMP180;54434;50.096;20.082;2023-11-19T14:34:56;98237.60;;;3.20
67822;BMP180;54434;50.096;20.082;2023-11-19T14:37:28;98231.60;;;3.16
67822;BMP180;54434;50.096;20.082;2023-11-19T14:40:01;98232.00;;;3.10
67822;BMP180;54434;50.096;20.082;2023-11-19T14:42:35;98227.40;;;3.10
67822;BMP180;54434;50.096;20.082;2023-11-19T14:45:10;98226.00;;;3.10